Time;durP1;ratioP1;P1;durP2;ratioP2;P2;SDS_P1;SDS_P2;PMS_P1;PMS_P2;Temp;Humidity;BMP_temperature;BMP_pressure;BME280_temperature;BME280_humidity;BME280_pressure;Samples;Min_cycle;Max_cycle;Signal;HPM_P1;HPM_P2
2022/09/30 00:00:36;;;;;;;;;;;9.40;99.90;;;;;;5091258;28;19974;-63
2022/09/30 00:03:04;;;;;;;;;;;9.50;99.90;;;;;;5088604;28;19967;-63
2022/09/30 00:05:32;;;;;;;;;;;9.40;99.90;;;;;;5082942;28;19966;-63
2022/09/30 00:08:00;;;;;;;;;;;9.40;99.90;;;;;;5092325;28;20364;-63
2022/09/30 00:10:28;;;;;;;;;;;9.30;99.90;;;;;;5095616;28;20346;-63
2022/09/30 00:12:57;;;;;;;;;;;9.10;99.90;;;;;;5094708;28;19966;-63
2022/09/30 00:15:25;;;;;;;;;;;9.00;99.90;;;;;;5095381;28;19973;-63
2022/09/30 00:17:54;;;;;;;;;;;9.10;99.90;;;;;;5086410;28;19966;-63
2022/09/30 00:20:22;;;;;;;;;;;9.10;99.90;;;;;;5076868;28;20366;-65
2022/09/30 00:22:49;;;;;;;;;;;9.10;99.90;;;;;;5091548;28;20345;-62
2022/09/30 00:25:17;;;;;;;;;;;9.10;99.90;;;;;;5085084;28;19973;-62
2022/09/30 00:27:45;;;;;;;;;;;9.10;99.90;;;;;;5085169;28;19966;-63
2022/09/30 00:30:13;;;;;;;;;;;9.00;99.90;;;;;;5094573;28;20426;-62
2022/09/30 00:32:41;;;;;;;;;;;9.00;99.90;;;;;;5095112;28;19970;-62
2022/09/30 00:35:10;;;;;;;;;;;9.00;99.90;;;;;;5094455;28;20049;-63
2022/09/30 00:37:38;;;;;;;;;;;9.00;99.90;;;;;;5095212;28;20458;-62
2022/09/30 00:40:06;;;;;;;;;;;9.00;99.90;;;;;;5094441;28;19976;-62
2022/09/30 00:42:34;;;;;;;;;;;9.10;99.90;;;;;;5085783;28;19969;-63
2022/09/30 00:45:04;;;;;;;;;;;9.00;99.90;;;;;;5094597;28;20446;-63
2022/09/30 00:47:37;;;;;;;;;;;8.90;99.90;;;;;;5085376;28;20479;-64
2022/09/30 00:50:11;;;;;;;;;;;8.90;99.90;;;;;;5079333;28;19967;-63
2022/09/30 00:52:41;;;;;;;;;;;8.90;99.90;;;;;;5075371;28;19969;-62
2022/09/30 00:55:17;;;;;;;;;;;8.90;99.90;;;;;;5082305;28;19973;-62
2022/09/30 00:57:44;;;;;;;;;;;8.70;99.90;;;;;;5079742;28;19972;-62
2022/09/30 01:00:12;;;;;;;;;;;8.60;99.90;;;;;;5093427;28;19962;-62
2022/09/30 01:02:40;;;;;;;;;;;8.70;99.90;;;;;;5083305;28;19963;-62
2022/09/30 01:05:10;;;;;;;;;;;8.80;99.90;;;;;;5086041;28;19966;-62
2022/09/30 01:07:37;;;;;;;;;;;8.90;99.90;;;;;;5074591;28;20053;-62
2022/09/30 01:10:07;;;;;;;;;;;9.00;99.90;;;;;;5085478;28;19977;-62
2022/09/30 01:12:35;;;;;;;;;;;9.00;99.90;;;;;;5074091;28;19973;-62
2022/09/30 01:15:03;;;;;;;;;;;9.10;99.90;;;;;;5094533;28;20360;-63
2022/09/30 01:17:35;;;;;;;;;;;9.10;99.90;;;;;;5093707;28;20455;-63
2022/09/30 01:20:14;;;;;;;;;;;9.20;99.90;;;;;;5073138;28;19978;-63
2022/09/30 01:22:46;;;;;;;;;;;9.20;99.90;;;;;;5075269;28;19967;-63
2022/09/30 01:25:29;;;;;;;;;;;9.20;99.90;;;;;;5094139;28;19989;-63
2022/09/30 01:28:07;;;;;;;;;;;9.30;99.90;;;;;;5074203;28;20000;-63
2022/09/30 01:30:53;;;;;;;;;;;9.20;99.90;;;;;;5074087;28;19973;-62
2022/09/30 01:33:25;;;;;;;;;;;9.20;99.90;;;;;;5083744;28;20179;-62
2022/09/30 01:36:04;;;;;;;;;;;9.20;99.90;;;;;;5077041;28;19969;-62
2022/09/30 01:38:37;;;;;;;;;;;9.20;99.90;;;;;;5094573;28;19974;-62
2022/09/30 01:41:07;;;;;;;;;;;9.20;99.90;;;;;;5093045;28;19969;-63
2022/09/30 01:43:39;;;;;;;;;;;9.20;99.90;;;;;;5089363;28;19962;-62
2022/09/30 01:46:14;;;;;;;;;;;9.30;99.90;;;;;;5087043;28;19968;-63
2022/09/30 01:48:46;;;;;;;;;;;9.30;99.90;;;;;;5093915;28;20517;-63
2022/09/30 01:51:17;;;;;;;;;;;9.40;99.90;;;;;;5092748;28;19962;-63
2022/09/30 01:53:47;;;;;;;;;;;9.40;99.90;;;;;;5093571;28;19973;-63
2022/09/30 01:56:17;;;;;;;;;;;9.40;99.90;;;;;;5092342;28;19968;-63
2022/09/30 01:58:50;;;;;;;;;;;9.40;99.90;;;;;;5092765;28;20340;-63
2022/09/30 02:01:21;;;;;;;;;;;9.40;99.90;;;;;;5083521;28;19973;-63
2022/09/30 02:03:51;;;;;;;;;;;9.40;99.90;;;;;;5075801;28;20331;-63
2022/09/30 02:06:19;;;;;;;;;;;9.40;99.90;;;;;;5093162;28;20461;-63
2022/09/30 02:08:50;;;;;;;;;;;9.30;99.90;;;;;;5092954;28;19966;-62
2022/09/30 02:11:23;;;;;;;;;;;9.40;99.90;;;;;;5093180;28;20356;-63
2022/09/30 02:13:53;;;;;;;;;;;9.40;99.90;;;;;;5092307;28;20003;-62
2022/09/30 02:16:24;;;;;;;;;;;9.40;99.90;;;;;;5093113;28;19966;-63
2022/09/30 02:18:54;;;;;;;;;;;9.40;99.90;;;;;;5092606;28;19974;-63
2022/09/30 02:21:24;;;;;;;;;;;9.30;99.90;;;;;;5076742;28;19974;-63
2022/09/30 02:23:53;;;;;;;;;;;9.30;99.90;;;;;;5092338;28;20126;-63
2022/09/30 02:26:23;;;;;;;;;;;9.30;99.90;;;;;;5092596;28;19970;-63
2022/09/30 02:28:54;;;;;;;;;;;9.20;99.90;;;;;;5092044;28;20423;-63
2022/09/30 02:31:24;;;;;;;;;;;9.20;99.90;;;;;;5089919;28;20447;-63
2022/09/30 02:33:54;;;;;;;;;;;9.20;99.90;;;;;;5081609;28;20433;-63
2022/09/30 02:36:26;;;;;;;;;;;9.10;99.90;;;;;;5082251;28;19966;-63
2022/09/30 02:38:57;;;;;;;;;;;9.10;99.90;;;;;;5092852;28;19966;-63
2022/09/30 02:41:26;;;;;;;;;;;9.10;99.90;;;;;;5091835;28;19996;-63
2022/09/30 02:43:55;;;;;;;;;;;9.10;99.90;;;;;;5086531;28;20726;-63
2022/09/30 02:46:26;;;;;;;;;;;9.10;99.90;;;;;;5080283;28;20442;-63
2022/09/30 02:48:59;;;;;;;;;;;9.10;99.90;;;;;;5080757;28;19973;-63
2022/09/30 02:51:31;;;;;;;;;;;8.90;99.90;;;;;;5092592;28;19970;-63
2022/09/30 02:54:02;;;;;;;;;;;8.90;99.90;;;;;;5084568;28;19966;-63
2022/09/30 02:56:35;;;;;;;;;;;8.70;99.90;;;;;;5079954;28;19992;-63
2022/09/30 02:59:03;;;;;;;;;;;8.60;99.90;;;;;;5079940;28;19966;-63
2022/09/30 03:01:32;;;;;;;;;;;8.60;99.90;;;;;;5079015;28;20454;-63
2022/09/30 03:04:03;;;;;;;;;;;8.70;99.90;;;;;;5087343;28;19966;-62
2022/09/30 03:06:31;;;;;;;;;;;8.70;99.90;;;;;;5083540;28;19967;-62
2022/09/30 03:08:58;;;;;;;;;;;8.70;99.90;;;;;;5084157;28;20478;-62
2022/09/30 03:11:27;;;;;;;;;;;8.70;99.90;;;;;;5080189;28;20013;-63
2022/09/30 03:14:06;;;;;;;;;;;8.60;99.90;;;;;;5077879;28;20461;-62
2022/09/30 03:16:40;;;;;;;;;;;8.70;99.90;;;;;;5083418;28;19966;-63
2022/09/30 03:19:16;;;;;;;;;;;8.70;99.90;;;;;;5083573;28;19974;-63
2022/09/30 03:21:49;;;;;;;;;;;8.60;99.90;;;;;;5084809;28;20450;-63
2022/09/30 03:24:33;;;;;;;;;;;8.70;99.90;;;;;;5082385;28;19966;-63
2022/09/30 03:27:08;;;;;;;;;;;8.70;99.90;;;;;;5076883;28;19973;-63
2022/09/30 03:29:40;;;;;;;;;;;8.70;99.90;;;;;;5082193;28;20437;-62
2022/09/30 03:32:14;;;;;;;;;;;8.60;99.90;;;;;;5077506;28;19973;-63
2022/09/30 03:34:51;;;;;;;;;;;8.60;99.90;;;;;;5080268;28;19962;-63
2022/09/30 03:37:25;;;;;;;;;;;8.60;99.90;;;;;;5075308;28;19973;-63
2022/09/30 03:39:55;;;;;;;;;;;8.50;99.90;;;;;;5091847;28;19966;-63
2022/09/30 03:42:25;;;;;;;;;;;8.60;99.90;;;;;;5090239;28;19970;-62
2022/09/30 03:44:56;;;;;;;;;;;8.60;99.90;;;;;;5084277;28;19977;-63
2022/09/30 03:47:28;;;;;;;;;;;8.60;99.90;;;;;;5078845;28;20035;-63
2022/09/30 03:49:59;;;;;;;;;;;8.60;99.90;;;;;;5084056;28;19977;-63
2022/09/30 03:52:30;;;;;;;;;;;8.60;99.90;;;;;;5082980;28;19966;-63
2022/09/30 03:54:59;;;;;;;;;;;8.60;99.90;;;;;;5084249;28;20005;-63
2022/09/30 03:57:27;;;;;;;;;;;8.70;99.90;;;;;;5083817;28;19962;-62
2022/09/30 03:59:55;;;;;;;;;;;8.70;99.90;;;;;;5083732;28;19967;-62
2022/09/30 04:02:23;;;;;;;;;;;8.70;99.90;;;;;;5084281;28;19971;-62
2022/09/30 04:04:52;;;;;;;;;;;8.70;99.90;;;;;;5075896;28;19974;-62
2022/09/30 04:07:20;;;;;;;;;;;8.70;99.90;;;;;;5082290;28;19962;-63
2022/09/30 04:09:48;;;;;;;;;;;8.70;99.90;;;;;;5087130;28;20373;-62
2022/09/30 04:12:16;;;;;;;;;;;8.70;99.90;;;;;;5085727;28;20009;-62
2022/09/30 04:14:43;;;;;;;;;;;8.70;99.90;;;;;;5085839;28;20027;-63
2022/09/30 04:17:11;;;;;;;;;;;8.70;99.90;;;;;;5083018;28;19970;-63
2022/09/30 04:19:39;;;;;;;;;;;8.60;99.90;;;;;;5074583;28;19977;-62
2022/09/30 04:22:08;;;;;;;;;;;8.40;99.90;;;;;;5075885;28;19975;-63
2022/09/30 04:24:38;;;;;;;;;;;8.20;99.90;;;;;;5076576;28;19970;-63
2022/09/30 04:27:05;;;;;;;;;;;8.00;99.90;;;;;;5070209;28;20013;-62
2022/09/30 04:29:33;;;;;;;;;;;7.80;99.90;;;;;;5075913;28;19974;-63
2022/09/30 04:32:01;;;;;;;;;;;7.70;99.90;;;;;;5073286;28;20776;-62
2022/09/30 04:34:29;;;;;;;;;;;7.60;99.90;;;;;;5075009;28;19970;-62
2022/09/30 04:36:57;;;;;;;;;;;7.40;99.90;;;;;;5073749;28;19974;-63
2022/09/30 04:39:26;;;;;;;;;;;7.20;99.90;;;;;;5071684;28;19962;-63
2022/09/30 04:41:54;;;;;;;;;;;7.10;99.90;;;;;;5071674;28;19969;-62
2022/09/30 04:44:22;;;;;;;;;;;7.10;99.90;;;;;;5072570;28;19966;-62
2022/09/30 04:46:50;;;;;;;;;;;7.00;99.90;;;;;;5071841;28;20349;-64
2022/09/30 04:49:18;;;;;;;;;;;6.90;99.90;;;;;;5073528;28;19970;-62
2022/09/30 04:51:45;;;;;;;;;;;6.90;99.90;;;;;;5076381;28;19970;-62
2022/09/30 04:54:15;;;;;;;;;;;6.80;99.90;;;;;;5075333;28;19974;-63
2022/09/30 04:56:44;;;;;;;;;;;6.80;99.90;;;;;;5070024;28;19970;-62
2022/09/30 04:59:12;;;;;;;;;;;6.70;99.90;;;;;;5072278;28;19975;-63
2022/09/30 05:01:41;;;;;;;;;;;6.60;99.90;;;;;;5072199;28;19981;-62
2022/09/30 05:04:10;;;;;;;;;;;6.60;99.90;;;;;;5072801;28;19974;-62
2022/09/30 05:06:39;;;;;;;;;;;6.60;99.90;;;;;;5072208;28;19977;-62
2022/09/30 05:09:07;;;;;;;;;;;6.70;99.90;;;;;;5073305;28;20673;-62
2022/09/30 05:11:36;;;;;;;;;;;6.60;99.90;;;;;;5074145;28;20065;-62
2022/09/30 05:14:08;;;;;;;;;;;6.60;99.90;;;;;;5074317;28;20061;-62
2022/09/30 05:16:36;;;;;;;;;;;6.60;99.90;;;;;;5074854;28;19971;-62
2022/09/30 05:19:04;;;;;;;;;;;6.60;99.90;;;;;;5072726;28;20003;-62
2022/09/30 05:21:32;;;;;;;;;;;6.60;99.90;;;;;;5073862;28;19970;-62
2022/09/30 05:24:00;;;;;;;;;;;6.60;99.90;;;;;;5073523;28;19975;-63
2022/09/30 05:26:27;;;;;;;;;;;6.70;99.90;;;;;;5073742;28;20380;-62
2022/09/30 05:28:55;;;;;;;;;;;6.70;99.90;;;;;;5073281;28;19966;-62
2022/09/30 05:31:25;;;;;;;;;;;6.70;99.90;;;;;;5074473;28;20427;-63
2022/09/30 05:33:54;;;;;;;;;;;6.70;99.90;;;;;;5073536;28;19970;-62
2022/09/30 05:36:25;;;;;;;;;;;6.60;99.90;;;;;;5074574;28;19966;-62
2022/09/30 05:38:53;;;;;;;;;;;6.70;99.90;;;;;;5073560;28;19971;-62
2022/09/30 05:41:21;;;;;;;;;;;6.70;99.90;;;;;;5074141;28;19973;-63
2022/09/30 05:43:49;;;;;;;;;;;6.70;99.90;;;;;;5075633;28;19967;-62
2022/09/30 05:46:17;;;;;;;;;;;6.60;99.90;;;;;;5070186;28;20365;-63
2022/09/30 05:48:47;;;;;;;;;;;6.50;99.90;;;;;;5070358;28;19971;-62
2022/09/30 05:51:14;;;;;;;;;;;6.50;99.90;;;;;;5072417;28;19975;-62
2022/09/30 05:53:43;;;;;;;;;;;6.50;99.90;;;;;;5075046;28;19974;-62
2022/09/30 05:56:11;;;;;;;;;;;6.50;99.90;;;;;;5071234;28;20780;-62
2022/09/30 05:58:40;;;;;;;;;;;6.50;99.90;;;;;;5074810;28;20500;-62
2022/09/30 06:01:09;;;;;;;;;;;6.60;99.90;;;;;;5071991;28;20115;-64
2022/09/30 06:03:40;;;;;;;;;;;6.60;99.90;;;;;;5071730;28;19974;-63
2022/09/30 06:06:10;;;;;;;;;;;6.60;99.90;;;;;;5071493;28;19970;-63
2022/09/30 06:08:37;;;;;;;;;;;6.70;99.90;;;;;;5071548;28;19974;-62
2022/09/30 06:11:10;;;;;;;;;;;6.80;99.90;;;;;;5070912;28;19981;-62
2022/09/30 06:13:39;;;;;;;;;;;6.90;99.90;;;;;;5070970;28;19973;-62
2022/09/30 06:16:07;;;;;;;;;;;6.90;99.90;;;;;;5072762;28;19974;-63
2022/09/30 06:18:35;;;;;;;;;;;7.00;99.90;;;;;;5076549;28;20001;-62
2022/09/30 06:21:04;;;;;;;;;;;7.00;99.90;;;;;;5077157;28;20370;-62
2022/09/30 06:23:35;;;;;;;;;;;7.00;99.90;;;;;;5087658;28;19969;-63
2022/09/30 06:26:04;;;;;;;;;;;7.10;99.90;;;;;;5086082;28;20323;-62
2022/09/30 06:28:34;;;;;;;;;;;7.20;99.90;;;;;;5081010;28;19969;-62
2022/09/30 06:31:02;;;;;;;;;;;7.20;99.90;;;;;;5077477;28;20065;-63
2022/09/30 06:33:30;;;;;;;;;;;7.30;99.90;;;;;;5079874;28;20369;-63
2022/09/30 06:35:58;;;;;;;;;;;7.30;99.90;;;;;;5072176;28;20057;-63
2022/09/30 06:38:27;;;;;;;;;;;7.30;99.90;;;;;;5072203;28;19966;-63
2022/09/30 06:40:58;;;;;;;;;;;7.40;99.90;;;;;;5072209;28;20056;-62
2022/09/30 06:43:26;;;;;;;;;;;7.50;99.90;;;;;;5072626;28;19977;-63
2022/09/30 06:45:53;;;;;;;;;;;7.60;99.90;;;;;;5072521;28;19977;-63
2022/09/30 06:48:38;;;;;;;;;;;7.70;99.90;;;;;;5072010;28;19972;-63
2022/09/30 06:51:08;;;;;;;;;;;7.80;99.90;;;;;;5072153;28;20006;-63
2022/09/30 06:53:36;;;;;;;;;;;7.90;99.90;;;;;;5072334;28;19973;-63
2022/09/30 06:56:06;;;;;;;;;;;8.00;99.90;;;;;;5072157;28;19967;-63
2022/09/30 06:58:34;;;;;;;;;;;8.00;99.90;;;;;;5071898;28;19971;-63
2022/09/30 07:01:02;;;;;;;;;;;8.10;99.90;;;;;;5072192;28;19967;-63
2022/09/30 07:03:31;;;;;;;;;;;8.20;99.90;;;;;;5072405;28;19974;-63
2022/09/30 07:06:00;;;;;;;;;;;8.20;99.90;;;;;;5071922;28;19967;-62
2022/09/30 07:08:30;;;;;;;;;;;8.30;99.90;;;;;;5071842;28;19972;-61
2022/09/30 07:10:58;;;;;;;;;;;8.30;99.90;;;;;;5071756;28;20053;-63
2022/09/30 07:13:27;;;;;;;;;;;8.40;99.90;;;;;;5072217;28;20021;-62
2022/09/30 07:15:55;;;;;;;;;;;8.50;99.90;;;;;;5071874;28;19970;-63
2022/09/30 07:18:24;;;;;;;;;;;8.60;99.90;;;;;;5071170;28;19970;-62
2022/09/30 07:20:52;;;;;;;;;;;8.70;99.90;;;;;;5071640;28;19973;-63
2022/09/30 07:23:20;;;;;;;;;;;8.90;99.90;;;;;;5072134;28;19970;-63
2022/09/30 07:25:55;;;;;;;;;;;8.90;99.90;;;;;;5071903;28;19967;-63
2022/09/30 07:28:26;;;;;;;;;;;9.00;99.90;;;;;;5071651;28;19967;-62
2022/09/30 07:30:56;;;;;;;;;;;9.10;99.90;;;;;;5071852;28;19966;-62
2022/09/30 07:33:45;;;;;;;;;;;9.10;99.90;;;;;;5071967;28;19982;-62
2022/09/30 07:36:14;;;;;;;;;;;9.30;99.90;;;;;;5071655;28;20519;-62
2022/09/30 07:38:42;;;;;;;;;;;9.40;99.90;;;;;;5071662;28;19966;-62
2022/09/30 07:41:11;;;;;;;;;;;9.60;99.90;;;;;;5071859;28;20263;-61
2022/09/30 07:43:39;;;;;;;;;;;9.70;99.90;;;;;;5071245;28;19966;-62
2022/09/30 07:46:10;;;;;;;;;;;9.80;99.90;;;;;;5071836;28;19977;-62
2022/09/30 07:48:43;;;;;;;;;;;9.90;99.90;;;;;;5071473;28;19966;-62
2022/09/30 07:51:12;;;;;;;;;;;10.10;99.90;;;;;;5071545;28;19972;-62
2022/09/30 07:53:39;;;;;;;;;;;10.40;99.90;;;;;;5071424;28;19967;-61
2022/09/30 07:56:08;;;;;;;;;;;10.50;99.90;;;;;;5071729;28;20021;-63
2022/09/30 07:58:36;;;;;;;;;;;10.50;99.90;;;;;;5071506;28;19975;-62
2022/09/30 08:01:05;;;;;;;;;;;10.60;99.90;;;;;;5071551;28;19973;-62
2022/09/30 08:03:37;;;;;;;;;;;10.70;99.90;;;;;;5071625;28;20005;-62
2022/09/30 08:06:06;;;;;;;;;;;10.90;99.90;;;;;;5071104;28;19974;-62
2022/09/30 08:08:34;;;;;;;;;;;11.10;99.90;;;;;;5071417;28;20357;-63
2022/09/30 08:11:02;;;;;;;;;;;11.30;99.90;;;;;;5071586;28;20021;-62
2022/09/30 08:13:29;;;;;;;;;;;11.40;99.90;;;;;;5071582;28;20057;-62
2022/09/30 08:15:57;;;;;;;;;;;11.60;99.90;;;;;;5071312;28;19973;-63
2022/09/30 08:18:26;;;;;;;;;;;11.80;99.90;;;;;;5071327;28;20024;-62
2022/09/30 08:20:55;;;;;;;;;;;11.90;99.90;;;;;;5071279;28;19966;-62
2022/09/30 08:23:23;;;;;;;;;;;12.00;99.90;;;;;;5071313;28;19973;-62
2022/09/30 08:25:51;;;;;;;;;;;12.10;99.90;;;;;;5071254;28;20515;-62
2022/09/30 08:28:19;;;;;;;;;;;12.40;99.90;;;;;;5070877;28;19967;-63
2022/09/30 08:30:46;;;;;;;;;;;12.50;99.90;;;;;;5074962;28;19966;-62
2022/09/30 08:33:14;;;;;;;;;;;12.70;99.90;;;;;;5074893;28;19973;-61
2022/09/30 08:35:42;;;;;;;;;;;12.80;99.90;;;;;;5074744;28;19967;-62
2022/09/30 08:38:11;;;;;;;;;;;13.00;99.90;;;;;;5074735;28;20012;-62
2022/09/30 08:40:46;;;;;;;;;;;13.30;99.90;;;;;;5074847;28;20465;-63
2022/09/30 08:43:21;;;;;;;;;;;13.40;99.90;;;;;;5074481;28;20458;-64
2022/09/30 08:45:53;;;;;;;;;;;13.60;99.90;;;;;;5074522;28;19966;-63
2022/09/30 08:48:27;;;;;;;;;;;13.60;99.90;;;;;;5074607;28;20197;-63
2022/09/30 08:51:01;;;;;;;;;;;13.50;99.90;;;;;;5074504;28;19972;-63
2022/09/30 08:53:31;;;;;;;;;;;13.70;99.90;;;;;;5074470;28;19970;-63
2022/09/30 08:56:01;;;;;;;;;;;13.80;99.90;;;;;;5074502;28;19971;-62
2022/09/30 08:58:31;;;;;;;;;;;14.10;99.90;;;;;;5074769;28;19972;-63
2022/09/30 09:01:02;;;;;;;;;;;14.30;99.90;;;;;;5074099;28;19972;-63
2022/09/30 09:03:32;;;;;;;;;;;14.40;99.90;;;;;;5074362;28;19968;-62
2022/09/30 09:06:09;;;;;;;;;;;14.60;99.90;;;;;;5074288;28;20477;-63
2022/09/30 09:08:48;;;;;;;;;;;14.80;99.90;;;;;;5074356;28;19967;-63
2022/09/30 09:11:20;;;;;;;;;;;15.10;99.90;;;;;;5073957;28;20021;-63
2022/09/30 09:13:51;;;;;;;;;;;15.20;99.90;;;;;;5074600;28;19967;-62
2022/09/30 09:16:22;;;;;;;;;;;15.50;99.90;;;;;;5073953;28;19966;-63
2022/09/30 09:19:09;;;;;;;;;;;15.50;99.90;;;;;;5074222;28;19966;-63
2022/09/30 09:21:46;;;;;;;;;;;15.90;99.90;;;;;;5073831;28;19972;-64
2022/09/30 09:24:18;;;;;;;;;;;16.30;99.90;;;;;;5073898;28;19970;-63
2022/09/30 09:26:46;;;;;;;;;;;16.30;99.90;;;;;;5073492;28;19970;-63
2022/09/30 09:29:34;;;;;;;;;;;16.30;99.90;;;;;;5073942;28;19977;-63
2022/09/30 09:32:02;;;;;;;;;;;16.30;99.90;;;;;;5073968;28;19970;-63
2022/09/30 09:34:30;;;;;;;;;;;16.40;99.90;;;;;;5073485;28;19967;-63
2022/09/30 09:37:06;;;;;;;;;;;16.40;99.90;;;;;;5073826;28;20191;-63
2022/09/30 09:39:45;;;;;;;;;;;16.60;99.90;;;;;;5073852;28;20008;-63
2022/09/30 09:42:22;;;;;;;;;;;16.80;99.90;;;;;;5097766;22;19967;-73
2022/09/30 09:44:54;;;;;;;;;;;17.20;99.90;;;;;;5084933;28;19966;-73
2022/09/30 09:47:22;;;;;;;;;;;17.50;99.90;;;;;;5093399;28;19967;-72
2022/09/30 09:49:53;;;;;;;;;;;17.70;99.90;;;;;;5093398;28;19973;-73
2022/09/30 09:52:42;;;;;;;;;;;17.70;99.90;;;;;;5093723;28;19970;-73
2022/09/30 09:55:11;;;;;;;;;;;17.80;99.90;;;;;;5093797;28;19966;-74
2022/09/30 09:57:40;;;;;;;;;;;17.80;99.90;;;;;;5093552;28;19974;-73
2022/09/30 10:02:58;;;;;;;;;;;18.10;99.90;;;;;;5093507;28;19966;-73
2022/09/30 10:05:26;;;;;;;;;;;18.30;99.90;;;;;;5093277;28;19973;-72
2022/09/30 10:08:08;;;;;;;;;;;18.30;99.90;;;;;;5093391;28;19967;-72
2022/09/30 10:10:43;;;;;;;;;;;18.50;99.90;;;;;;5092989;28;19965;-73
2022/09/30 10:13:15;;;;;;;;;;;18.50;99.90;;;;;;5093329;28;19988;-72
2022/09/30 10:15:43;;;;;;;;;;;18.50;99.90;;;;;;5093188;28;19993;-73
2022/09/30 10:18:17;;;;;;;;;;;18.70;99.90;;;;;;5093021;28;19970;-73
2022/09/30 10:20:50;;;;;;;;;;;19.00;99.90;;;;;;5092969;28;20065;-73
2022/09/30 10:23:19;;;;;;;;;;;19.30;99.90;;;;;;5093244;28;19980;-74
2022/09/30 10:25:58;;;;;;;;;;;19.10;99.90;;;;;;5092933;28;20012;-73
2022/09/30 10:28:28;;;;;;;;;;;19.20;99.90;;;;;;5092612;28;19972;-73
2022/09/30 10:30:58;;;;;;;;;;;19.40;99.90;;;;;;5092785;28;19966;-73
2022/09/30 10:33:27;;;;;;;;;;;19.40;99.90;;;;;;5093063;28;19972;-73
2022/09/30 10:35:57;;;;;;;;;;;19.60;99.90;;;;;;5092939;28;19966;-73
2022/09/30 10:38:27;;;;;;;;;;;19.80;99.90;;;;;;5092964;28;19970;-73
2022/09/30 10:40:56;;;;;;;;;;;20.00;99.90;;;;;;5092618;28;19966;-73
2022/09/30 10:43:27;;;;;;;;;;;19.90;99.90;;;;;;5092714;28;19996;-73
2022/09/30 10:45:58;;;;;;;;;;;19.90;99.90;;;;;;5092894;28;20383;-73
2022/09/30 10:48:49;;;;;;;;;;;19.90;99.90;;;;;;5092972;28;19977;-74
2022/09/30 10:51:22;;;;;;;;;;;20.30;99.90;;;;;;5092073;28;20073;-73
2022/09/30 10:53:50;;;;;;;;;;;20.40;99.90;;;;;;5092926;28;20035;-73
2022/09/30 10:56:31;;;;;;;;;;;20.30;99.90;;;;;;5092567;28;19966;-73
2022/09/30 10:59:02;;;;;;;;;;;20.30;99.90;;;;;;5092627;28;19973;-73
2022/09/30 11:01:32;;;;;;;;;;;20.50;99.90;;;;;;5092048;28;20425;-73
2022/09/30 11:04:03;;;;;;;;;;;20.50;99.90;;;;;;5092454;28;20412;-73
2022/09/30 11:06:32;;;;;;;;;;;20.40;99.90;;;;;;5092435;28;19970;-73
2022/09/30 11:09:03;;;;;;;;;;;20.40;99.90;;;;;;5092464;28;19978;-71
2022/09/30 11:11:34;;;;;;;;;;;20.60;99.90;;;;;;5092022;28;19976;-73
2022/09/30 11:14:08;;;;;;;;;;;21.10;99.90;;;;;;5092154;28;19972;-73
2022/09/30 11:16:39;;;;;;;;;;;21.50;99.90;;;;;;5092291;28;20349;-73
2022/09/30 11:19:09;;;;;;;;;;;21.10;99.20;;;;;;5092480;28;19970;-73
2022/09/30 11:21:40;;;;;;;;;;;21.20;99.90;;;;;;5092186;28;19992;-73
2022/09/30 11:24:21;;;;;;;;;;;21.40;99.20;;;;;;5092151;28;19966;-73
2022/09/30 11:26:52;;;;;;;;;;;21.80;98.80;;;;;;5091601;28;19965;-73
2022/09/30 11:29:32;;;;;;;;;;;22.10;98.50;;;;;;5092577;28;19976;-73
2022/09/30 11:32:07;;;;;;;;;;;22.30;97.90;;;;;;5092224;28;20364;-74
2022/09/30 11:34:42;;;;;;;;;;;22.50;99.00;;;;;;5091940;28;19979;-74
2022/09/30 11:37:15;;;;;;;;;;;22.20;98.50;;;;;;5092181;28;19972;-74
2022/09/30 11:40:00;;;;;;;;;;;22.30;98.10;;;;;;5091963;28;19970;-73
2022/09/30 11:42:30;;;;;;;;;;;22.70;97.00;;;;;;5091804;28;19973;-74
2022/09/30 11:45:04;;;;;;;;;;;22.70;95.10;;;;;;5091905;28;20053;-74
2022/09/30 11:47:38;;;;;;;;;;;22.70;95.40;;;;;;5092050;28;20384;-74
2022/09/30 11:50:23;;;;;;;;;;;22.80;95.10;;;;;;5091552;28;19967;-74
2022/09/30 11:52:54;;;;;;;;;;;22.70;94.20;;;;;;5092013;28;19966;-73
2022/09/30 11:55:31;;;;;;;;;;;22.80;95.20;;;;;;5091819;28;19981;-73
2022/09/30 11:58:01;;;;;;;;;;;22.90;94.90;;;;;;5091837;28;20534;-74
2022/09/30 12:00:52;;;;;;;;;;;23.30;94.30;;;;;;5091511;28;20458;-74
2022/09/30 12:03:22;;;;;;;;;;;23.50;95.30;;;;;;5092000;28;19970;-74
2022/09/30 12:05:53;;;;;;;;;;;23.40;93.80;;;;;;5095618;28;19977;-74
2022/09/30 12:08:22;;;;;;;;;;;23.30;93.90;;;;;;5095853;28;19970;-73
2022/09/30 12:10:52;;;;;;;;;;;23.50;94.40;;;;;;5095419;28;19973;-74
2022/09/30 12:13:23;;;;;;;;;;;23.70;93.30;;;;;;5095656;28;19966;-74
2022/09/30 12:15:54;;;;;;;;;;;23.10;93.70;;;;;;5095562;28;19966;-73
2022/09/30 12:18:25;;;;;;;;;;;22.90;94.10;;;;;;5095384;28;19967;-73
2022/09/30 12:20:55;;;;;;;;;;;23.10;93.30;;;;;;5095331;28;20357;-74
2022/09/30 12:23:27;;;;;;;;;;;23.40;93.10;;;;;;5095698;28;19984;-74
2022/09/30 12:25:56;;;;;;;;;;;23.80;93.40;;;;;;5095496;28;19966;-73
2022/09/30 12:31:33;;;;;;;;;;;23.20;92.10;;;;;;5094876;28;19980;-74
2022/09/30 12:34:06;;;;;;;;;;;23.00;92.50;;;;;;5064760;28;20015;-73
2022/09/30 12:36:42;;;;;;;;;;;23.30;92.20;;;;;;5095395;28;19976;-73
2022/09/30 12:39:28;;;;;;;;;;;23.30;92.10;;;;;;5095324;28;19966;-73
2022/09/30 12:42:02;;;;;;;;;;;23.20;91.50;;;;;;5094875;28;19966;-73
2022/09/30 12:44:48;;;;;;;;;;;23.70;92.30;;;;;;5095387;28;19978;-74
2022/09/30 12:47:22;;;;;;;;;;;24.40;91.40;;;;;;5094935;28;19970;-74
2022/09/30 12:49:54;;;;;;;;;;;24.60;91.20;;;;;;5094665;28;20358;-73
2022/09/30 12:52:22;;;;;;;;;;;24.50;90.90;;;;;;5094726;28;19966;-73
2022/09/30 12:54:52;;;;;;;;;;;24.60;91.60;;;;;;5094979;28;19966;-73
2022/09/30 12:57:20;;;;;;;;;;;24.90;90.50;;;;;;5094734;28;20348;-73
2022/09/30 12:59:51;;;;;;;;;;;25.20;89.60;;;;;;5094591;28;19967;-73
2022/09/30 13:02:27;;;;;;;;;;;25.50;90.10;;;;;;5094723;28;19973;-73
2022/09/30 13:05:17;;;;;;;;;;;25.70;87.00;;;;;;5095131;28;19970;-73
2022/09/30 13:08:08;;;;;;;;;;;25.70;87.50;;;;;;5094625;28;20002;-73
2022/09/30 13:10:43;;;;;;;;;;;25.80;86.80;;;;;;5094320;28;19979;-73
2022/09/30 13:13:20;;;;;;;;;;;25.70;86.80;;;;;;5094330;28;20443;-73
2022/09/30 13:15:48;;;;;;;;;;;25.90;87.50;;;;;;5093305;28;19966;-73
2022/09/30 13:18:34;;;;;;;;;;;25.40;85.50;;;;;;5094480;28;19965;-73
2022/09/30 13:21:18;;;;;;;;;;;25.50;87.40;;;;;;5094060;28;19977;-73
2022/09/30 13:23:46;;;;;;;;;;;25.70;85.60;;;;;;5094152;28;20438;-73
2022/09/30 13:26:37;;;;;;;;;;;25.40;85.20;;;;;;5093785;28;20451;-72
2022/09/30 13:29:23;;;;;;;;;;;24.70;87.00;;;;;;5094441;28;19966;-73
2022/09/30 13:32:04;;;;;;;;;;;24.60;87.00;;;;;;5093678;28;19977;-73
2022/09/30 13:34:34;;;;;;;;;;;24.40;87.50;;;;;;5094147;28;19964;-73
2022/09/30 13:37:04;;;;;;;;;;;24.60;86.10;;;;;;5094100;28;20427;-73
2022/09/30 13:39:44;;;;;;;;;;;24.30;87.40;;;;;;5094021;28;19985;-73
2022/09/30 13:42:14;;;;;;;;;;;24.60;87.40;;;;;;5093634;28;20349;-73
2022/09/30 13:44:56;;;;;;;;;;;24.60;88.40;;;;;;5094110;28;19973;-73
2022/09/30 13:47:27;;;;;;;;;;;24.60;88.20;;;;;;5093807;28;19973;-73
2022/09/30 13:49:57;;;;;;;;;;;24.30;87.20;;;;;;5093668;28;19965;-72
2022/09/30 13:52:28;;;;;;;;;;;24.30;88.90;;;;;;5093668;28;19965;-73
2022/09/30 13:54:56;;;;;;;;;;;24.10;87.00;;;;;;5093997;28;19967;-73
2022/09/30 13:57:26;;;;;;;;;;;24.30;88.10;;;;;;5093530;28;19967;-73
2022/09/30 14:00:00;;;;;;;;;;;24.20;87.90;;;;;;5093581;28;19966;-73
2022/09/30 14:02:44;;;;;;;;;;;24.30;88.20;;;;;;5093634;28;20052;-73
2022/09/30 14:05:30;;;;;;;;;;;23.40;88.80;;;;;;5093724;28;19966;-74
2022/09/30 14:08:08;;;;;;;;;;;23.60;88.80;;;;;;5093510;28;19969;-73
2022/09/30 14:10:41;;;;;;;;;;;23.70;88.00;;;;;;5093129;28;19966;-74
2022/09/30 14:13:17;;;;;;;;;;;23.70;88.10;;;;;;5093294;28;20001;-73
2022/09/30 14:16:00;;;;;;;;;;;23.70;87.70;;;;;;5093418;28;20362;-73
2022/09/30 14:18:37;;;;;;;;;;;23.70;88.20;;;;;;5093084;28;20009;-73
2022/09/30 14:21:16;;;;;;;;;;;23.40;88.20;;;;;;5093123;28;19972;-73
2022/09/30 14:23:46;;;;;;;;;;;22.90;89.30;;;;;;5093334;28;19970;-73
2022/09/30 14:26:27;;;;;;;;;;;22.30;90.30;;;;;;5092615;28;19969;-72
2022/09/30 14:28:59;;;;;;;;;;;21.60;90.20;;;;;;5093181;28;20057;-73
2022/09/30 14:31:31;;;;;;;;;;;21.20;90.70;;;;;;5092788;28;20004;-73
2022/09/30 14:33:58;;;;;;;;;;;21.00;91.50;;;;;;5093205;28;19966;-73
2022/09/30 14:36:26;;;;;;;;;;;20.90;91.80;;;;;;5093089;28;19970;-73
2022/09/30 14:38:57;;;;;;;;;;;20.70;91.70;;;;;;5092941;28;20005;-73
2022/09/30 14:41:27;;;;;;;;;;;20.80;91.80;;;;;;5092481;28;20019;-73
2022/09/30 14:43:56;;;;;;;;;;;21.30;91.20;;;;;;5092521;28;20035;-73
2022/09/30 14:46:28;;;;;;;;;;;21.60;90.50;;;;;;5092693;28;20011;-74
2022/09/30 14:49:00;;;;;;;;;;;22.10;90.30;;;;;;5092903;28;19970;-74
2022/09/30 14:51:28;;;;;;;;;;;22.30;90.00;;;;;;5092052;28;20004;-73
2022/09/30 14:53:59;;;;;;;;;;;22.60;89.50;;;;;;5092693;28;20503;-73